sensor_id;sensor_type;location;lat;lon;timestamp;P1;durP1;ratioP1;P2;durP2;ratioP2
19521;SDS011;9905;52.126;5.596;2024-03-25T00:01:43;26.02;;;24.25;;
19521;SDS011;9905;52.126;5.596;2024-03-25T00:04:10;24.42;;;22.80;;
19521;SDS011;9905;52.126;5.596;2024-03-25T00:06:37;25.85;;;23.55;;
19521;SDS011;9905;52.126;5.596;2024-03-25T00:09:04;24.45;;;22.92;;
19521;SDS011;9905;52.126;5.596;2024-03-25T00:11:32;25.75;;;24.15;;
19521;SDS011;9905;52.126;5.596;2024-03-25T00:13:59;25.65;;;23.73;;
19521;SDS011;9905;52.126;5.596;2024-03-25T00:16:25;26.48;;;24.05;;
19521;SDS011;9905;52.126;5.596;2024-03-25T00:18:51;25.38;;;23.20;;
19521;SDS011;9905;52.126;5.596;2024-03-25T00:21:17;24.42;;;22.65;;
19521;SDS011;9905;52.126;5.596;2024-03-25T00:23:45;26.23;;;24.17;;
19521;SDS011;9905;52.126;5.596;2024-03-25T00:26:11;26.67;;;24.25;;
19521;SDS011;9905;52.126;5.596;2024-03-25T00:28:38;25.02;;;23.10;;
19521;SDS011;9905;52.126;5.596;2024-03-25T00:31:04;25.02;;;23.08;;
19521;SDS011;9905;52.126;5.596;2024-03-25T00:33:30;26.38;;;23.83;;
19521;SDS011;9905;52.126;5.596;2024-03-25T00:35:57;26.38;;;24.08;;
19521;SDS011;9905;52.126;5.596;2024-03-25T00:38:24;25.30;;;23.40;;
19521;SDS011;9905;52.126;5.596;2024-03-25T00:40:51;25.40;;;23.30;;
19521;SDS011;9905;52.126;5.596;2024-03-25T00:43:18;25.30;;;23.15;;
19521;SDS011;9905;52.126;5.596;2024-03-25T00:45:44;25.63;;;23.50;;
19521;SDS011;9905;52.126;5.596;2024-03-25T00:48:11;24.73;;;22.70;;
19521;SDS011;9905;52.126;5.596;2024-03-25T00:50:37;25.95;;;24.23;;
19521;SDS011;9905;52.126;5.596;2024-03-25T00:53:04;24.60;;;23.02;;
19521;SDS011;9905;52.126;5.596;2024-03-25T00:55:30;24.40;;;22.75;;
19521;SDS011;9905;52.126;5.596;2024-03-25T00:57:58;24.05;;;22.45;;
19521;SDS011;9905;52.126;5.596;2024-03-25T01:00:24;26.73;;;24.45;;
19521;SDS011;9905;52.126;5.596;2024-03-25T01:02:51;25.42;;;23.35;;
19521;SDS011;9905;52.126;5.596;2024-03-25T01:05:17;24.20;;;22.08;;
19521;SDS011;9905;52.126;5.596;2024-03-25T01:07:44;25.27;;;22.98;;
19521;SDS011;9905;52.126;5.596;2024-03-25T01:10:10;23.90;;;22.02;;
19521;SDS011;9905;52.126;5.596;2024-03-25T01:12:36;23.63;;;21.67;;
19521;SDS011;9905;52.126;5.596;2024-03-25T01:15:04;23.45;;;21.92;;
19521;SDS011;9905;52.126;5.596;2024-03-25T01:17:32;23.27;;;21.83;;
19521;SDS011;9905;52.126;5.596;2024-03-25T01:19:58;22.70;;;20.95;;
19521;SDS011;9905;52.126;5.596;2024-03-25T01:22:25;22.27;;;20.90;;
19521;SDS011;9905;52.126;5.596;2024-03-25T01:24:50;23.60;;;21.13;;
19521;SDS011;9905;52.126;5.596;2024-03-25T01:27:17;22.92;;;21.30;;
19521;SDS011;9905;52.126;5.596;2024-03-25T01:29:43;22.83;;;20.83;;
19521;SDS011;9905;52.126;5.596;2024-03-25T01:32:11;24.02;;;21.88;;
19521;SDS011;9905;52.126;5.596;2024-03-25T01:34:36;23.88;;;21.58;;
19521;SDS011;9905;52.126;5.596;2024-03-25T01:37:03;24.00;;;22.02;;
19521;SDS011;9905;52.126;5.596;2024-03-25T01:39:29;23.55;;;21.30;;
19521;SDS011;9905;52.126;5.596;2024-03-25T01:41:56;23.92;;;22.13;;
19521;SDS011;9905;52.126;5.596;2024-03-25T01:44:22;24.73;;;22.45;;
19521;SDS011;9905;52.126;5.596;2024-03-25T01:46:49;23.85;;;21.65;;
19521;SDS011;9905;52.126;5.596;2024-03-25T01:49:18;24.85;;;22.85;;
19521;SDS011;9905;52.126;5.596;2024-03-25T01:51:45;23.98;;;22.13;;
19521;SDS011;9905;52.126;5.596;2024-03-25T01:54:11;23.67;;;21.70;;
19521;SDS011;9905;52.126;5.596;2024-03-25T01:56:41;24.17;;;22.52;;
19521;SDS011;9905;52.126;5.596;2024-03-25T01:59:08;25.70;;;23.63;;
19521;SDS011;9905;52.126;5.596;2024-03-25T02:01:36;26.13;;;23.92;;
19521;SDS011;9905;52.126;5.596;2024-03-25T02:04:02;26.02;;;23.48;;
19521;SDS011;9905;52.126;5.596;2024-03-25T02:06:30;24.88;;;22.98;;
19521;SDS011;9905;52.126;5.596;2024-03-25T02:08:57;23.67;;;22.05;;
19521;SDS011;9905;52.126;5.596;2024-03-25T02:11:24;25.92;;;23.70;;
19521;SDS011;9905;52.126;5.596;2024-03-25T02:13:51;26.52;;;24.42;;
19521;SDS011;9905;52.126;5.596;2024-03-25T02:16:18;25.35;;;23.38;;
19521;SDS011;9905;52.126;5.596;2024-03-25T02:18:43;25.92;;;23.50;;
19521;SDS011;9905;52.126;5.596;2024-03-25T02:21:10;25.65;;;23.70;;
19521;SDS011;9905;52.126;5.596;2024-03-25T02:23:38;26.77;;;24.90;;
19521;SDS011;9905;52.126;5.596;2024-03-25T02:26:09;26.85;;;25.02;;
19521;SDS011;9905;52.126;5.596;2024-03-25T02:28:35;25.95;;;24.35;;
19521;SDS011;9905;52.126;5.596;2024-03-25T02:31:02;27.10;;;24.67;;
19521;SDS011;9905;52.126;5.596;2024-03-25T02:33:28;26.00;;;24.48;;
19521;SDS011;9905;52.126;5.596;2024-03-25T02:35:54;28.40;;;26.05;;
19521;SDS011;9905;52.126;5.596;2024-03-25T02:38:20;28.83;;;26.30;;
19521;SDS011;9905;52.126;5.596;2024-03-25T02:40:48;27.52;;;24.90;;
19521;SDS011;9905;52.126;5.596;2024-03-25T02:43:16;29.83;;;26.65;;
19521;SDS011;9905;52.126;5.596;2024-03-25T02:45:46;25.98;;;24.45;;
19521;SDS011;9905;52.126;5.596;2024-03-25T02:48:12;28.02;;;25.98;;
19521;SDS011;9905;52.126;5.596;2024-03-25T02:50:38;28.58;;;26.40;;
19521;SDS011;9905;52.126;5.596;2024-03-25T02:53:04;28.38;;;26.23;;
19521;SDS011;9905;52.126;5.596;2024-03-25T02:55:31;27.25;;;25.05;;
19521;SDS011;9905;52.126;5.596;2024-03-25T02:57:57;26.88;;;24.80;;
19521;SDS011;9905;52.126;5.596;2024-03-25T03:00:25;28.23;;;25.75;;
19521;SDS011;9905;52.126;5.596;2024-03-25T03:02:51;26.58;;;24.48;;
19521;SDS011;9905;52.126;5.596;2024-03-25T03:05:17;27.63;;;25.48;;
19521;SDS011;9905;52.126;5.596;2024-03-25T03:07:44;27.38;;;25.70;;
19521;SDS011;9905;52.126;5.596;2024-03-25T03:10:11;28.30;;;26.25;;
19521;SDS011;9905;52.126;5.596;2024-03-25T03:12:36;28.48;;;25.65;;
19521;SDS011;9905;52.126;5.596;2024-03-25T03:15:04;27.48;;;25.48;;
19521;SDS011;9905;52.126;5.596;2024-03-25T03:17:31;28.38;;;26.13;;
19521;SDS011;9905;52.126;5.596;2024-03-25T03:19:58;27.27;;;25.17;;
19521;SDS011;9905;52.126;5.596;2024-03-25T03:22:24;29.85;;;27.25;;
19521;SDS011;9905;52.126;5.596;2024-03-25T03:24:51;28.38;;;26.15;;
19521;SDS011;9905;52.126;5.596;2024-03-25T03:27:17;29.90;;;26.83;;
19521;SDS011;9905;52.126;5.596;2024-03-25T03:29:44;27.38;;;24.95;;
19521;SDS011;9905;52.126;5.596;2024-03-25T03:32:09;26.60;;;24.73;;
19521;SDS011;9905;52.126;5.596;2024-03-25T03:34:37;28.00;;;25.42;;
19521;SDS011;9905;52.126;5.596;2024-03-25T03:37:03;26.27;;;24.50;;
19521;SDS011;9905;52.126;5.596;2024-03-25T03:39:30;25.98;;;24.20;;
19521;SDS011;9905;52.126;5.596;2024-03-25T03:41:56;26.90;;;24.98;;
19521;SDS011;9905;52.126;5.596;2024-03-25T03:44:23;26.63;;;24.55;;
19521;SDS011;9905;52.126;5.596;2024-03-25T03:46:49;26.05;;;23.98;;
19521;SDS011;9905;52.126;5.596;2024-03-25T03:49:15;25.58;;;24.05;;
19521;SDS011;9905;52.126;5.596;2024-03-25T03:51:44;24.08;;;22.45;;
19521;SDS011;9905;52.126;5.596;2024-03-25T03:54:11;23.90;;;22.50;;
19521;SDS011;9905;52.126;5.596;2024-03-25T03:56:36;24.58;;;22.73;;
19521;SDS011;9905;52.126;5.596;2024-03-25T03:59:03;25.80;;;24.27;;
19521;SDS011;9905;52.126;5.596;2024-03-25T04:01:29;24.67;;;22.88;;
19521;SDS011;9905;52.126;5.596;2024-03-25T04:03:56;24.92;;;23.48;;
19521;SDS011;9905;52.126;5.596;2024-03-25T04:06:21;24.77;;;23.27;;
19521;SDS011;9905;52.126;5.596;2024-03-25T04:08:50;26.10;;;24.33;;
19521;SDS011;9905;52.126;5.596;2024-03-25T04:11:15;24.83;;;23.00;;
19521;SDS011;9905;52.126;5.596;2024-03-25T04:13:42;24.88;;;22.98;;
19521;SDS011;9905;52.126;5.596;2024-03-25T04:16:08;23.98;;;22.63;;
19521;SDS011;9905;52.126;5.596;2024-03-25T04:18:35;25.17;;;23.38;;
19521;SDS011;9905;52.126;5.596;2024-03-25T04:21:01;24.65;;;22.98;;
19521;SDS011;9905;52.126;5.596;2024-03-25T04:23:29;26.02;;;23.98;;
19521;SDS011;9905;52.126;5.596;2024-03-25T04:25:56;24.98;;;22.98;;
19521;SDS011;9905;52.126;5.596;2024-03-25T04:28:27;25.73;;;23.77;;
19521;SDS011;9905;52.126;5.596;2024-03-25T04:30:53;23.85;;;22.15;;
19521;SDS011;9905;52.126;5.596;2024-03-25T04:33:20;25.15;;;23.15;;
19521;SDS011;9905;52.126;5.596;2024-03-25T04:35:46;26.90;;;24.58;;
19521;SDS011;9905;52.126;5.596;2024-03-25T04:38:16;25.23;;;23.65;;
19521;SDS011;9905;52.126;5.596;2024-03-25T04:40:42;25.00;;;23.10;;
19521;SDS011;9905;52.126;5.596;2024-03-25T04:43:10;25.25;;;23.23;;
19521;SDS011;9905;52.126;5.596;2024-03-25T04:45:36;25.42;;;23.65;;
19521;SDS011;9905;52.126;5.596;2024-03-25T04:48:02;26.27;;;24.42;;
19521;SDS011;9905;52.126;5.596;2024-03-25T04:50:28;26.55;;;24.55;;
19521;SDS011;9905;52.126;5.596;2024-03-25T04:52:55;24.73;;;23.20;;
19521;SDS011;9905;52.126;5.596;2024-03-25T04:55:21;24.17;;;22.85;;
19521;SDS011;9905;52.126;5.596;2024-03-25T04:57:47;25.38;;;23.52;;
19521;SDS011;9905;52.126;5.596;2024-03-25T05:00:14;27.38;;;25.05;;
19521;SDS011;9905;52.126;5.596;2024-03-25T05:02:40;26.13;;;24.13;;
19521;SDS011;9905;52.126;5.596;2024-03-25T05:05:06;26.13;;;24.52;;
19521;SDS011;9905;52.126;5.596;2024-03-25T05:07:32;27.23;;;25.52;;
19521;SDS011;9905;52.126;5.596;2024-03-25T05:09:58;25.85;;;24.02;;
19521;SDS011;9905;52.126;5.596;2024-03-25T05:12:24;26.50;;;24.83;;
19521;SDS011;9905;52.126;5.596;2024-03-25T05:14:50;26.92;;;24.52;;
19521;SDS011;9905;52.126;5.596;2024-03-25T05:17:17;25.08;;;23.73;;
19521;SDS011;9905;52.126;5.596;2024-03-25T05:19:43;24.55;;;22.85;;
19521;SDS011;9905;52.126;5.596;2024-03-25T05:22:09;26.08;;;24.35;;
19521;SDS011;9905;52.126;5.596;2024-03-25T05:24:35;23.42;;;21.73;;
19521;SDS011;9905;52.126;5.596;2024-03-25T05:27:01;25.80;;;23.35;;
19521;SDS011;9905;52.126;5.596;2024-03-25T05:29:27;26.27;;;24.42;;
19521;SDS011;9905;52.126;5.596;2024-03-25T05:31:56;27.30;;;25.10;;
19521;SDS011;9905;52.126;5.596;2024-03-25T05:34:24;28.83;;;26.20;;
19521;SDS011;9905;52.126;5.596;2024-03-25T05:36:51;27.73;;;25.93;;
19521;SDS011;9905;52.126;5.596;2024-03-25T05:39:17;27.60;;;25.65;;
19521;SDS011;9905;52.126;5.596;2024-03-25T05:41:43;27.65;;;25.55;;
19521;SDS011;9905;52.126;5.596;2024-03-25T05:44:09;29.08;;;27.02;;
19521;SDS011;9905;52.126;5.596;2024-03-25T05:46:35;27.23;;;25.60;;
19521;SDS011;9905;52.126;5.596;2024-03-25T05:49:01;27.77;;;25.95;;
19521;SDS011;9905;52.126;5.596;2024-03-25T05:51:29;27.85;;;25.73;;
19521;SDS011;9905;52.126;5.596;2024-03-25T05:53:55;27.65;;;25.30;;
19521;SDS011;9905;52.126;5.596;2024-03-25T05:56:21;28.58;;;26.25;;
19521;SDS011;9905;52.126;5.596;2024-03-25T05:58:47;29.08;;;26.98;;
19521;SDS011;9905;52.126;5.596;2024-03-25T06:01:12;28.77;;;26.85;;
19521;SDS011;9905;52.126;5.596;2024-03-25T06:03:38;29.05;;;26.17;;
19521;SDS011;9905;52.126;5.596;2024-03-25T06:06:04;27.48;;;25.55;;
19521;SDS011;9905;52.126;5.596;2024-03-25T06:08:31;29.55;;;27.02;;
19521;SDS011;9905;52.126;5.596;2024-03-25T06:11:00;28.75;;;26.70;;
19521;SDS011;9905;52.126;5.596;2024-03-25T06:13:26;30.00;;;27.90;;
19521;SDS011;9905;52.126;5.596;2024-03-25T06:15:52;29.05;;;26.60;;
19521;SDS011;9905;52.126;5.596;2024-03-25T06:18:18;30.05;;;27.73;;
19521;SDS011;9905;52.126;5.596;2024-03-25T06:20:44;29.20;;;26.80;;
19521;SDS011;9905;52.126;5.596;2024-03-25T06:23:10;30.50;;;28.17;;
19521;SDS011;9905;52.126;5.596;2024-03-25T06:25:37;29.73;;;27.50;;
19521;SDS011;9905;52.126;5.596;2024-03-25T06:28:03;31.45;;;28.42;;
19521;SDS011;9905;52.126;5.596;2024-03-25T06:30:29;30.85;;;28.40;;
19521;SDS011;9905;52.126;5.596;2024-03-25T06:33:13;33.05;;;29.95;;
19521;SDS011;9905;52.126;5.596;2024-03-25T06:35:58;30.45;;;28.10;;
19521;SDS011;9905;52.126;5.596;2024-03-25T06:38:23;31.70;;;28.83;;
19521;SDS011;9905;52.126;5.596;2024-03-25T06:40:51;30.83;;;28.45;;
19521;SDS011;9905;52.126;5.596;2024-03-25T06:43:16;33.47;;;29.65;;
19521;SDS011;9905;52.126;5.596;2024-03-25T06:45:42;33.58;;;30.75;;
19521;SDS011;9905;52.126;5.596;2024-03-25T06:48:08;32.63;;;30.25;;
19521;SDS011;9905;52.126;5.596;2024-03-25T06:50:34;33.22;;;30.27;;
19521;SDS011;9905;52.126;5.596;2024-03-25T06:53:00;33.15;;;30.55;;
19521;SDS011;9905;52.126;5.596;2024-03-25T06:55:26;33.75;;;30.50;;
19521;SDS011;9905;52.126;5.596;2024-03-25T06:57:53;33.40;;;30.27;;
19521;SDS011;9905;52.126;5.596;2024-03-25T07:00:19;32.33;;;30.15;;
19521;SDS011;9905;52.126;5.596;2024-03-25T07:02:45;35.15;;;32.08;;
19521;SDS011;9905;52.126;5.596;2024-03-25T07:05:11;34.58;;;31.95;;
19521;SDS011;9905;52.126;5.596;2024-03-25T07:07:37;35.72;;;32.45;;
19521;SDS011;9905;52.126;5.596;2024-03-25T07:10:03;34.10;;;31.65;;
19521;SDS011;9905;52.126;5.596;2024-03-25T07:12:29;36.72;;;33.35;;
19521;SDS011;9905;52.126;5.596;2024-03-25T07:14:56;38.35;;;33.42;;
19521;SDS011;9905;52.126;5.596;2024-03-25T07:17:22;35.78;;;32.95;;
19521;SDS011;9905;52.126;5.596;2024-03-25T07:19:48;36.78;;;33.65;;
19521;SDS011;9905;52.126;5.596;2024-03-25T07:22:14;37.45;;;34.28;;
19521;SDS011;9905;52.126;5.596;2024-03-25T07:24:39;37.20;;;33.80;;
19521;SDS011;9905;52.126;5.596;2024-03-25T07:27:05;36.78;;;33.88;;
19521;SDS011;9905;52.126;5.596;2024-03-25T07:29:31;38.22;;;34.55;;
19521;SDS011;9905;52.126;5.596;2024-03-25T07:31:58;36.88;;;33.63;;
19521;SDS011;9905;52.126;5.596;2024-03-25T07:34:24;37.70;;;34.60;;
19521;SDS011;9905;52.126;5.596;2024-03-25T07:36:50;38.38;;;35.08;;
19521;SDS011;9905;52.126;5.596;2024-03-25T07:39:16;40.65;;;34.88;;
19521;SDS011;9905;52.126;5.596;2024-03-25T07:41:42;39.88;;;36.05;;
19521;SDS011;9905;52.126;5.596;2024-03-25T07:44:08;39.25;;;35.88;;
19521;SDS011;9905;52.126;5.596;2024-03-25T07:46:33;38.15;;;35.25;;
19521;SDS011;9905;52.126;5.596;2024-03-25T07:49:01;38.22;;;34.95;;
19521;SDS011;9905;52.126;5.596;2024-03-25T07:51:26;39.67;;;35.42;;
19521;SDS011;9905;52.126;5.596;2024-03-25T07:53:52;38.35;;;34.90;;
19521;SDS011;9905;52.126;5.596;2024-03-25T07:56:18;38.05;;;35.05;;
19521;SDS011;9905;52.126;5.596;2024-03-25T07:58:44;39.40;;;35.85;;
19521;SDS011;9905;52.126;5.596;2024-03-25T08:01:10;38.15;;;35.03;;
19521;SDS011;9905;52.126;5.596;2024-03-25T08:03:35;38.05;;;34.42;;
19521;SDS011;9905;52.126;5.596;2024-03-25T08:06:03;38.45;;;34.85;;
19521;SDS011;9905;52.126;5.596;2024-03-25T08:08:29;36.63;;;33.47;;
19521;SDS011;9905;52.126;5.596;2024-03-25T08:10:55;37.47;;;34.42;;
19521;SDS011;9905;52.126;5.596;2024-03-25T08:13:21;36.90;;;34.00;;
19521;SDS011;9905;52.126;5.596;2024-03-25T08:15:47;37.53;;;34.53;;
19521;SDS011;9905;52.126;5.596;2024-03-25T08:18:13;37.25;;;33.90;;
19521;SDS011;9905;52.126;5.596;2024-03-25T08:20:39;35.50;;;32.90;;
19521;SDS011;9905;52.126;5.596;2024-03-25T08:23:06;37.35;;;34.58;;
19521;SDS011;9905;52.126;5.596;2024-03-25T08:25:32;34.97;;;31.85;;
19521;SDS011;9905;52.126;5.596;2024-03-25T08:27:58;34.08;;;30.85;;
19521;SDS011;9905;52.126;5.596;2024-03-25T08:30:24;34.28;;;31.75;;
19521;SDS011;9905;52.126;5.596;2024-03-25T08:32:50;33.25;;;30.55;;
19521;SDS011;9905;52.126;5.596;2024-03-25T08:35:16;33.45;;;30.70;;
19521;SDS011;9905;52.126;5.596;2024-03-25T08:37:41;29.17;;;26.98;;
19521;SDS011;9905;52.126;5.596;2024-03-25T08:40:10;26.42;;;23.88;;
19521;SDS011;9905;52.126;5.596;2024-03-25T08:42:36;27.25;;;24.83;;
19521;SDS011;9905;52.126;5.596;2024-03-25T08:45:02;23.17;;;21.05;;
19521;SDS011;9905;52.126;5.596;2024-03-25T08:47:28;22.13;;;20.40;;
19521;SDS011;9905;52.126;5.596;2024-03-25T08:49:54;21.92;;;20.10;;
19521;SDS011;9905;52.126;5.596;2024-03-25T08:52:20;19.98;;;18.58;;
19521;SDS011;9905;52.126;5.596;2024-03-25T08:54:46;17.17;;;15.90;;
19521;SDS011;9905;52.126;5.596;2024-03-25T08:57:13;17.08;;;15.60;;
19521;SDS011;9905;52.126;5.596;2024-03-25T08:59:39;15.25;;;14.00;;
19521;SDS011;9905;52.126;5.596;2024-03-25T09:02:05;16.98;;;15.68;;
19521;SDS011;9905;52.126;5.596;2024-03-25T09:04:31;15.38;;;13.98;;
19521;SDS011;9905;52.126;5.596;2024-03-25T09:06:56;15.63;;;14.45;;
19521;SDS011;9905;52.126;5.596;2024-03-25T09:09:22;16.52;;;15.25;;
19521;SDS011;9905;52.126;5.596;2024-03-25T09:12:06;10.80;;;9.80;;
19521;SDS011;9905;52.126;5.596;2024-03-25T09:14:34;11.23;;;10.43;;
19521;SDS011;9905;52.126;5.596;2024-03-25T09:17:00;10.10;;;9.27;;
19521;SDS011;9905;52.126;5.596;2024-03-25T09:19:25;10.10;;;9.02;;
19521;SDS011;9905;52.126;5.596;2024-03-25T09:21:51;9.77;;;8.80;;
19521;SDS011;9905;52.126;5.596;2024-03-25T09:24:17;9.77;;;9.07;;
19521;SDS011;9905;52.126;5.596;2024-03-25T09:26:43;10.73;;;9.75;;
19521;SDS011;9905;52.126;5.596;2024-03-25T09:29:09;10.70;;;8.85;;
19521;SDS011;9905;52.126;5.596;2024-03-25T09:31:36;10.35;;;8.52;;
19521;SDS011;9905;52.126;5.596;2024-03-25T09:34:02;8.55;;;7.88;;
19521;SDS011;9905;52.126;5.596;2024-03-25T09:36:28;9.88;;;8.88;;
19521;SDS011;9905;52.126;5.596;2024-03-25T09:38:54;12.35;;;9.50;;
19521;SDS011;9905;52.126;5.596;2024-03-25T09:41:19;8.77;;;8.18;;
19521;SDS011;9905;52.126;5.596;2024-03-25T09:43:47;10.63;;;9.52;;
19521;SDS011;9905;52.126;5.596;2024-03-25T09:46:15;11.48;;;8.93;;
19521;SDS011;9905;52.126;5.596;2024-03-25T09:48:42;8.80;;;7.90;;
19521;SDS011;9905;52.126;5.596;2024-03-25T09:51:09;13.32;;;8.13;;
19521;SDS011;9905;52.126;5.596;2024-03-25T09:53:35;9.38;;;8.35;;
19521;SDS011;9905;52.126;5.596;2024-03-25T09:56:01;8.07;;;7.40;;
19521;SDS011;9905;52.126;5.596;2024-03-25T09:58:27;9.00;;;6.55;;
19521;SDS011;9905;52.126;5.596;2024-03-25T10:00:53;11.90;;;8.95;;
19521;SDS011;9905;52.126;5.596;2024-03-25T10:03:20;12.57;;;8.52;;
19521;SDS011;9905;52.126;5.596;2024-03-25T10:05:47;8.15;;;7.35;;
19521;SDS011;9905;52.126;5.596;2024-03-25T10:08:13;7.85;;;7.10;;
19521;SDS011;9905;52.126;5.596;2024-03-25T10:10:39;7.18;;;6.57;;
19521;SDS011;9905;52.126;5.596;2024-03-25T10:13:04;7.85;;;7.00;;
19521;SDS011;9905;52.126;5.596;2024-03-25T10:15:30;10.20;;;6.50;;
19521;SDS011;9905;52.126;5.596;2024-03-25T10:17:57;9.98;;;6.78;;
19521;SDS011;9905;52.126;5.596;2024-03-25T10:20:23;7.25;;;6.68;;
19521;SDS011;9905;52.126;5.596;2024-03-25T10:22:50;9.65;;;7.25;;
19521;SDS011;9905;52.126;5.596;2024-03-25T10:25:20;9.18;;;7.07;;
19521;SDS011;9905;52.126;5.596;2024-03-25T10:27:54;7.15;;;6.45;;
19521;SDS011;9905;52.126;5.596;2024-03-25T10:30:20;6.68;;;6.07;;
19521;SDS011;9905;52.126;5.596;2024-03-25T10:32:46;10.10;;;5.95;;
19521;SDS011;9905;52.126;5.596;2024-03-25T10:35:24;6.72;;;5.65;;
19521;SDS011;9905;52.126;5.596;2024-03-25T10:37:54;6.03;;;5.38;;
19521;SDS011;9905;52.126;5.596;2024-03-25T10:40:22;9.65;;;5.68;;
19521;SDS011;9905;52.126;5.596;2024-03-25T10:42:50;11.77;;;5.50;;
19521;SDS011;9905;52.126;5.596;2024-03-25T10:45:17;7.00;;;5.35;;
19521;SDS011;9905;52.126;5.596;2024-03-25T10:47:43;9.18;;;5.53;;
19521;SDS011;9905;52.126;5.596;2024-03-25T10:50:09;8.95;;;5.75;;
19521;SDS011;9905;52.126;5.596;2024-03-25T10:52:41;5.90;;;5.05;;
19521;SDS011;9905;52.126;5.596;2024-03-25T10:55:08;5.68;;;5.18;;
19521;SDS011;9905;52.126;5.596;2024-03-25T10:57:35;7.82;;;5.30;;
19521;SDS011;9905;52.126;5.596;2024-03-25T11:00:02;8.70;;;5.10;;
19521;SDS011;9905;52.126;5.596;2024-03-25T11:02:29;6.80;;;5.03;;
19521;SDS011;9905;52.126;5.596;2024-03-25T11:04:56;8.73;;;4.93;;
19521;SDS011;9905;52.126;5.596;2024-03-25T11:07:30;6.18;;;5.32;;
19521;SDS011;9905;52.126;5.596;2024-03-25T11:10:02;5.43;;;4.88;;
19521;SDS011;9905;52.126;5.596;2024-03-25T11:12:34;6.03;;;4.57;;
19521;SDS011;9905;52.126;5.596;2024-03-25T11:15:01;7.85;;;4.85;;
19521;SDS011;9905;52.126;5.596;2024-03-25T11:17:28;5.75;;;4.10;;
19521;SDS011;9905;52.126;5.596;2024-03-25T11:19:54;7.07;;;4.40;;
19521;SDS011;9905;52.126;5.596;2024-03-25T11:22:32;6.38;;;4.57;;
19521;SDS011;9905;52.126;5.596;2024-03-25T11:25:04;9.25;;;4.45;;
19521;SDS011;9905;52.126;5.596;2024-03-25T11:27:33;5.25;;;4.82;;
19521;SDS011;9905;52.126;5.596;2024-03-25T11:30:01;6.15;;;4.50;;
19521;SDS011;9905;52.126;5.596;2024-03-25T11:32:27;7.57;;;4.80;;
19521;SDS011;9905;52.126;5.596;2024-03-25T11:34:53;8.13;;;3.97;;
19521;SDS011;9905;52.126;5.596;2024-03-25T11:37:19;4.70;;;4.38;;
19521;SDS011;9905;52.126;5.596;2024-03-25T11:39:45;7.03;;;5.18;;
19521;SDS011;9905;52.126;5.596;2024-03-25T11:42:12;5.10;;;4.65;;
19521;SDS011;9905;52.126;5.596;2024-03-25T11:44:40;5.95;;;5.45;;
19521;SDS011;9905;52.126;5.596;2024-03-25T11:47:06;5.82;;;5.25;;
19521;SDS011;9905;52.126;5.596;2024-03-25T11:49:33;8.40;;;5.18;;
19521;SDS011;9905;52.126;5.596;2024-03-25T11:51:59;9.50;;;5.20;;
19521;SDS011;9905;52.126;5.596;2024-03-25T11:54:26;8.48;;;5.55;;
19521;SDS011;9905;52.126;5.596;2024-03-25T11:56:53;6.10;;;4.72;;
19521;SDS011;9905;52.126;5.596;2024-03-25T11:59:19;5.97;;;4.35;;
19521;SDS011;9905;52.126;5.596;2024-03-25T12:01:46;6.18;;;4.70;;
19521;SDS011;9905;52.126;5.596;2024-03-25T12:04:16;5.55;;;4.30;;
19521;SDS011;9905;52.126;5.596;2024-03-25T12:06:43;5.13;;;4.50;;
19521;SDS011;9905;52.126;5.596;2024-03-25T12:09:10;7.07;;;5.15;;
19521;SDS011;9905;52.126;5.596;2024-03-25T12:11:54;9.50;;;5.00;;
19521;SDS011;9905;52.126;5.596;2024-03-25T12:14:20;10.27;;;5.30;;
19521;SDS011;9905;52.126;5.596;2024-03-25T12:16:48;7.00;;;4.63;;
19521;SDS011;9905;52.126;5.596;2024-03-25T12:19:15;7.38;;;5.25;;
19521;SDS011;9905;52.126;5.596;2024-03-25T12:21:41;7.07;;;4.65;;
19521;SDS011;9905;52.126;5.596;2024-03-25T12:24:07;5.88;;;4.30;;
19521;SDS011;9905;52.126;5.596;2024-03-25T12:26:33;5.25;;;4.47;;
19521;SDS011;9905;52.126;5.596;2024-03-25T12:28:59;6.22;;;4.30;;
19521;SDS011;9905;52.126;5.596;2024-03-25T12:31:25;4.75;;;4.40;;
19521;SDS011;9905;52.126;5.596;2024-03-25T12:33:52;6.43;;;4.28;;
19521;SDS011;9905;52.126;5.596;2024-03-25T12:36:19;9.10;;;5.13;;
19521;SDS011;9905;52.126;5.596;2024-03-25T12:38:53;9.32;;;4.28;;
19521;SDS011;9905;52.126;5.596;2024-03-25T12:41:21;5.43;;;4.95;;
19521;SDS011;9905;52.126;5.596;2024-03-25T12:43:48;4.50;;;4.10;;
19521;SDS011;9905;52.126;5.596;2024-03-25T12:46:15;6.45;;;4.38;;
19521;SDS011;9905;52.126;5.596;2024-03-25T12:48:41;4.78;;;4.45;;
19521;SDS011;9905;52.126;5.596;2024-03-25T12:51:12;3.63;;;3.35;;
19521;SDS011;9905;52.126;5.596;2024-03-25T12:53:39;4.05;;;3.63;;
19521;SDS011;9905;52.126;5.596;2024-03-25T12:56:05;5.15;;;3.85;;
19521;SDS011;9905;52.126;5.596;2024-03-25T12:58:32;5.57;;;3.78;;
19521;SDS011;9905;52.126;5.596;2024-03-25T13:00:57;4.63;;;4.10;;
19521;SDS011;9905;52.126;5.596;2024-03-25T13:03:24;4.28;;;3.80;;
19521;SDS011;9905;52.126;5.596;2024-03-25T13:05:49;4.70;;;3.95;;
19521;SDS011;9905;52.126;5.596;2024-03-25T13:08:17;5.40;;;4.00;;
19521;SDS011;9905;52.126;5.596;2024-03-25T13:10:45;4.20;;;3.90;;
19521;SDS011;9905;52.126;5.596;2024-03-25T13:13:11;3.88;;;3.60;;
19521;SDS011;9905;52.126;5.596;2024-03-25T13:15:37;4.07;;;3.70;;
19521;SDS011;9905;52.126;5.596;2024-03-25T13:18:03;4.10;;;3.53;;
19521;SDS011;9905;52.126;5.596;2024-03-25T13:20:29;3.75;;;3.53;;
19521;SDS011;9905;52.126;5.596;2024-03-25T13:22:55;5.38;;;3.63;;
19521;SDS011;9905;52.126;5.596;2024-03-25T13:25:22;3.13;;;2.90;;
19521;SDS011;9905;52.126;5.596;2024-03-25T13:27:48;4.43;;;3.50;;
19521;SDS011;9905;52.126;5.596;2024-03-25T13:30:14;3.35;;;3.05;;
19521;SDS011;9905;52.126;5.596;2024-03-25T13:32:40;4.05;;;3.75;;
19521;SDS011;9905;52.126;5.596;2024-03-25T13:35:06;4.00;;;3.30;;
19521;SDS011;9905;52.126;5.596;2024-03-25T13:37:32;3.65;;;3.45;;
19521;SDS011;9905;52.126;5.596;2024-03-25T13:39:58;3.17;;;2.97;;
19521;SDS011;9905;52.126;5.596;2024-03-25T13:42:25;3.97;;;3.47;;
19521;SDS011;9905;52.126;5.596;2024-03-25T13:44:51;4.03;;;3.25;;
19521;SDS011;9905;52.126;5.596;2024-03-25T13:47:17;2.95;;;2.85;;
19521;SDS011;9905;52.126;5.596;2024-03-25T13:49:42;4.22;;;3.15;;
19521;SDS011;9905;52.126;5.596;2024-03-25T13:52:08;5.85;;;3.75;;
19521;SDS011;9905;52.126;5.596;2024-03-25T13:54:34;3.28;;;3.08;;
19521;SDS011;9905;52.126;5.596;2024-03-25T13:57:00;4.65;;;3.65;;
19521;SDS011;9905;52.126;5.596;2024-03-25T13:59:27;3.00;;;2.85;;
19521;SDS011;9905;52.126;5.596;2024-03-25T14:01:53;4.35;;;3.35;;
19521;SDS011;9905;52.126;5.596;2024-03-25T14:04:19;4.47;;;2.97;;
19521;SDS011;9905;52.126;5.596;2024-03-25T14:06:45;3.97;;;3.67;;
19521;SDS011;9905;52.126;5.596;2024-03-25T14:09:13;4.18;;;3.53;;
19521;SDS011;9905;52.126;5.596;2024-03-25T14:11:48;3.47;;;3.20;;
19521;SDS011;9905;52.126;5.596;2024-03-25T14:14:14;3.95;;;3.10;;
19521;SDS011;9905;52.126;5.596;2024-03-25T14:16:42;2.88;;;2.70;;
19521;SDS011;9905;52.126;5.596;2024-03-25T14:19:07;3.50;;;3.28;;
19521;SDS011;9905;52.126;5.596;2024-03-25T14:21:34;3.40;;;3.10;;
19521;SDS011;9905;52.126;5.596;2024-03-25T14:24:00;3.20;;;3.03;;
19521;SDS011;9905;52.126;5.596;2024-03-25T14:26:26;4.65;;;3.28;;
19521;SDS011;9905;52.126;5.596;2024-03-25T14:28:52;4.22;;;3.30;;
19521;SDS011;9905;52.126;5.596;2024-03-25T14:31:18;3.90;;;3.60;;
19521;SDS011;9905;52.126;5.596;2024-03-25T14:33:45;3.55;;;2.97;;
19521;SDS011;9905;52.126;5.596;2024-03-25T14:36:11;3.10;;;2.85;;
19521;SDS011;9905;52.126;5.596;2024-03-25T14:38:37;2.95;;;2.75;;
19521;SDS011;9905;52.126;5.596;2024-03-25T14:41:03;3.03;;;2.83;;